createdAt,value
2023-10-14T00:01:37.486Z,99.90
2023-10-14T00:04:09.620Z,99.90
2023-10-14T00:06:40.335Z,99.90
2023-10-14T00:09:35.438Z,99.90
2023-10-14T00:12:06.788Z,99.90
2023-10-14T00:14:38.588Z,99.90
2023-10-14T00:17:13.601Z,99.90
2023-10-14T00:19:43.006Z,99.90
2023-10-14T00:22:12.285Z,99.90
2023-10-14T00:24:41.469Z,99.90
2023-10-14T00:27:10.452Z,99.90
2023-10-14T00:29:39.569Z,99.90
2023-10-14T00:32:10.214Z,99.90
2023-10-14T00:34:39.382Z,99.90
2023-10-14T00:37:10.259Z,99.90
2023-10-14T00:39:39.345Z,99.90
2023-10-14T00:42:10.048Z,99.90
2023-10-14T00:44:41.314Z,99.90
2023-10-14T00:47:17.163Z,99.90
2023-10-14T00:49:49.531Z,99.90
2023-10-14T00:52:21.268Z,99.90
2023-10-14T00:55:02.521Z,99.90
2023-10-14T00:57:40.431Z,99.90
2023-10-14T01:00:12.916Z,99.90
2023-10-14T01:02:47.532Z,99.90
2023-10-14T01:05:21.172Z,99.90
2023-10-14T01:07:51.023Z,99.90
2023-10-14T01:10:38.568Z,99.90
2023-10-14T01:13:15.597Z,99.90
2023-10-14T01:15:48.828Z,99.90
2023-10-14T01:18:19.434Z,99.90
2023-10-14T01:20:49.022Z,99.90
2023-10-14T01:23:19.671Z,99.90
2023-10-14T01:25:53.714Z,99.90
2023-10-14T01:28:25.061Z,99.90
2023-10-14T01:31:32.451Z,99.90
2023-10-14T01:34:03.476Z,99.90
2023-10-14T01:36:39.497Z,99.90
2023-10-14T01:39:15.325Z,99.90
2023-10-14T01:41:45.696Z,99.90
2023-10-14T01:44:33.299Z,99.90
2023-10-14T01:47:02.754Z,99.90
2023-10-14T01:49:32.212Z,99.90
2023-10-14T01:52:01.491Z,99.90
2023-10-14T01:54:33.345Z,99.90
2023-10-14T01:57:02.324Z,99.90
2023-10-14T01:59:31.464Z,99.90
2023-10-14T02:02:00.976Z,99.90
2023-10-14T02:04:30.462Z,99.90
2023-10-14T02:07:19.494Z,99.90
2023-10-14T02:09:51.014Z,99.90
2023-10-14T02:12:22.286Z,99.90
2023-10-14T02:14:58.966Z,99.90
2023-10-14T02:17:28.381Z,99.90
2023-10-14T02:20:07.558Z,99.90
2023-10-14T02:22:39.994Z,99.90
2023-10-14T02:25:14.627Z,99.90
2023-10-14T02:27:44.394Z,99.90
2023-10-14T02:30:33.992Z,99.90
2023-10-14T02:33:03.503Z,99.90
2023-10-14T02:35:34.969Z,99.90
2023-10-14T02:38:06.544Z,99.90
2023-10-14T02:40:39.170Z,99.90
2023-10-14T02:43:10.755Z,99.90
2023-10-14T02:45:42.704Z,99.90
2023-10-14T02:48:12.797Z,99.90
2023-10-14T02:50:52.384Z,99.90
2023-10-14T02:53:24.507Z,99.90
2023-10-14T02:56:05.744Z,99.90
2023-10-14T02:58:34.871Z,99.90
2023-10-14T03:01:04.404Z,99.90
2023-10-14T03:03:33.364Z,99.90
2023-10-14T03:06:07.772Z,99.90
2023-10-14T03:08:37.554Z,99.90
2023-10-14T03:11:17.989Z,99.90
2023-10-14T03:13:47.479Z,99.90
2023-10-14T03:16:19.986Z,99.90
2023-10-14T03:18:49.324Z,99.90
2023-10-14T03:21:33.365Z,99.90
2023-10-14T03:24:02.565Z,99.90
2023-10-14T03:26:34.900Z,99.90
2023-10-14T03:29:07.274Z,99.90
2023-10-14T03:31:37.441Z,99.90
2023-10-14T03:34:10.499Z,99.90
2023-10-14T03:36:44.014Z,99.90
2023-10-14T03:39:25.411Z,99.90
2023-10-14T03:41:56.096Z,99.90
2023-10-14T03:44:25.960Z,99.90
2023-10-14T03:47:01.561Z,99.90
2023-10-14T03:49:34.302Z,99.90
2023-10-14T03:52:03.879Z,99.90
2023-10-14T03:54:43.367Z,99.90
2023-10-14T03:57:18.551Z,99.90
2023-10-14T03:59:49.870Z,99.90
2023-10-14T04:02:21.659Z,99.90
2023-10-14T04:04:55.195Z,99.90
2023-10-14T04:07:30.038Z,99.90
2023-10-14T04:10:05.936Z,99.90
2023-10-14T04:12:39.042Z,99.90
2023-10-14T04:15:25.522Z,99.90
2023-10-14T04:17:57.027Z,99.90
2023-10-14T04:20:31.392Z,99.90
2023-10-14T04:23:06.890Z,99.90
2023-10-14T04:25:44.116Z,99.90
2023-10-14T04:28:32.491Z,99.90
2023-10-14T04:31:28.627Z,99.90
2023-10-14T04:33:58.152Z,99.90
2023-10-14T04:36:40.694Z,99.90
2023-10-14T04:39:26.814Z,99.90
2023-10-14T04:42:06.372Z,99.90
2023-10-14T04:44:39.084Z,99.90
2023-10-14T04:47:10.203Z,99.90
2023-10-14T04:49:39.645Z,99.90
2023-10-14T04:52:09.451Z,99.90
2023-10-14T04:54:53.229Z,99.90
2023-10-14T04:57:23.468Z,99.90
2023-10-14T04:59:57.221Z,99.90
2023-10-14T05:02:32.606Z,99.90
2023-10-14T05:05:02.051Z,99.90
2023-10-14T05:07:31.064Z,99.90
2023-10-14T05:10:07.807Z,99.90
2023-10-14T05:12:42.538Z,99.90
2023-10-14T05:15:23.369Z,99.90
2023-10-14T05:17:54.063Z,99.90
2023-10-14T05:20:29.914Z,99.90
2023-10-14T05:22:59.016Z,99.90
2023-10-14T05:25:31.909Z,99.90
2023-10-14T05:28:06.105Z,99.90
2023-10-14T05:30:36.978Z,99.90
2023-10-14T05:33:09.606Z,99.90
2023-10-14T05:35:42.290Z,99.90
2023-10-14T05:38:12.823Z,99.90
2023-10-14T05:40:42.451Z,99.90
2023-10-14T05:43:11.453Z,99.90
2023-10-14T05:45:41.859Z,99.90
2023-10-14T05:48:11.536Z,99.90
2023-10-14T05:50:42.006Z,99.90
2023-10-14T05:53:11.204Z,99.90
2023-10-14T05:55:41.368Z,99.90
2023-10-14T05:58:10.730Z,99.90
2023-10-14T06:00:44.184Z,99.90
2023-10-14T06:03:14.611Z,99.90
2023-10-14T06:05:43.976Z,99.90
2023-10-14T06:08:21.818Z,99.90
2023-10-14T06:10:50.817Z,99.90
2023-10-14T06:13:20.012Z,99.90
2023-10-14T06:15:50.516Z,99.90
2023-10-14T06:18:20.255Z,99.90
2023-10-14T06:20:49.377Z,99.90
2023-10-14T06:23:18.606Z,99.90
2023-10-14T06:25:47.752Z,99.90
2023-10-14T06:28:16.812Z,99.90
2023-10-14T06:30:45.885Z,99.90
2023-10-14T06:33:16.751Z,99.90
2023-10-14T06:35:46.037Z,99.90
2023-10-14T06:38:19.555Z,99.90
2023-10-14T06:40:54.658Z,99.90
2023-10-14T06:43:26.761Z,99.90
2023-10-14T06:45:58.438Z,99.90
2023-10-14T06:48:29.369Z,99.90
2023-10-14T06:51:00.368Z,99.90
2023-10-14T06:53:30.207Z,99.90
2023-10-14T06:55:59.896Z,99.90
2023-10-14T06:58:30.755Z,99.90
2023-10-14T07:01:00.556Z,99.90
2023-10-14T07:03:32.523Z,99.90
2023-10-14T07:06:01.600Z,99.90
2023-10-14T07:08:30.998Z,99.90
2023-10-14T07:11:02.154Z,99.90
2023-10-14T07:14:03.342Z,99.90
2023-10-14T07:16:41.880Z,99.90
2023-10-14T07:19:12.772Z,99.90
2023-10-14T07:22:09.611Z,99.90
2023-10-14T07:28:01.591Z,99.90
2023-10-14T07:30:32.489Z,99.90
2023-10-14T07:33:02.399Z,99.90
2023-10-14T07:35:47.148Z,99.90
2023-10-14T07:38:22.255Z,99.90
2023-10-14T07:40:51.399Z,99.90
2023-10-14T07:43:21.662Z,99.90
2023-10-14T07:45:50.844Z,99.90
2023-10-14T07:48:21.468Z,99.90
2023-10-14T07:50:52.003Z,99.90
2023-10-14T07:53:24.252Z,99.90
2023-10-14T07:55:54.685Z,99.90
2023-10-14T07:58:26.186Z,99.90
2023-10-14T08:00:56.616Z,99.90
2023-10-14T08:03:27.151Z,99.90
2023-10-14T08:06:12.354Z,99.90
2023-10-14T08:08:49.214Z,99.90
2023-10-14T08:11:18.417Z,99.90
2023-10-14T08:13:47.509Z,99.90
2023-10-14T08:16:16.984Z,99.90
2023-10-14T08:18:46.681Z,99.90
2023-10-14T08:21:32.337Z,99.90
2023-10-14T08:24:01.206Z,99.90
2023-10-14T08:26:31.489Z,99.90
2023-10-14T08:29:02.839Z,99.90
2023-10-14T08:32:07.922Z,99.90
2023-10-14T08:35:32.681Z,99.90
2023-10-14T08:38:31.690Z,99.90
2023-10-14T08:41:19.510Z,99.90
2023-10-14T08:43:51.482Z,99.90
2023-10-14T08:46:44.417Z,99.90
2023-10-14T08:49:51.601Z,99.90
2023-10-14T08:52:46.716Z,99.90
2023-10-14T08:55:25.030Z,99.90
2023-10-14T08:58:20.314Z,99.90
2023-10-14T09:01:06.679Z,99.90
2023-10-14T09:03:37.233Z,99.90
2023-10-14T09:06:44.590Z,99.90
2023-10-14T09:09:19.534Z,99.90
2023-10-14T09:11:53.960Z,99.90
2023-10-14T09:14:24.459Z,99.90
2023-10-14T09:17:08.735Z,99.90
2023-10-14T09:19:45.393Z,99.90
2023-10-14T09:22:21.367Z,98.30
2023-10-14T09:24:51.465Z,97.10
2023-10-14T09:27:22.609Z,96.10
2023-10-14T09:29:51.758Z,95.50
2023-10-14T09:32:21.008Z,94.90
2023-10-14T09:34:52.538Z,94.10
2023-10-14T09:37:24.208Z,93.70
2023-10-14T09:40:02.657Z,93.30
2023-10-14T09:42:47.680Z,92.80
2023-10-14T09:45:20.612Z,92.50
2023-10-14T09:47:50.428Z,92.50
2023-10-14T09:50:19.685Z,92.90
2023-10-14T09:52:50.158Z,92.90
2023-10-14T09:55:21.230Z,92.30
2023-10-14T09:57:52.418Z,92.10
2023-10-14T10:00:21.445Z,91.80
2023-10-14T10:02:52.839Z,91.60
2023-10-14T10:05:28.088Z,91.50
2023-10-14T10:08:03.910Z,92.10
2023-10-14T10:10:33.952Z,92.30
2023-10-14T10:13:05.024Z,91.80
2023-10-14T10:15:36.910Z,91.30
2023-10-14T10:18:07.125Z,89.90
2023-10-14T10:20:38.398Z,87.00
2023-10-14T10:23:09.088Z,83.20
2023-10-14T10:25:51.464Z,79.80
2023-10-14T10:28:39.095Z,77.60
2023-10-14T10:31:11.728Z,76.40
2023-10-14T10:33:58.276Z,75.60
2023-10-14T10:36:29.557Z,74.90
2023-10-14T10:39:07.470Z,73.80
2023-10-14T10:41:39.571Z,73.10
2023-10-14T10:44:18.523Z,73.10
2023-10-14T10:46:52.423Z,73.10
2023-10-14T10:49:53.607Z,72.50
2023-10-14T10:52:23.087Z,73.30
2023-10-14T10:54:52.967Z,74.30
2023-10-14T10:57:23.474Z,74.80
2023-10-14T10:59:52.313Z,75.10
2023-10-14T11:02:23.101Z,75.30
2023-10-14T11:04:53.218Z,75.30
2023-10-14T11:07:24.847Z,75.60
2023-10-14T11:09:54.231Z,76.20
2023-10-14T11:12:23.312Z,75.80
2023-10-14T11:14:52.342Z,76.10
2023-10-14T11:17:28.283Z,77.00
2023-10-14T11:20:04.599Z,77.10
2023-10-14T11:22:45.038Z,76.90
2023-10-14T11:25:37.910Z,77.00
2023-10-14T11:28:24.851Z,76.60
2023-10-14T11:30:57.164Z,76.20
2023-10-14T11:33:49.252Z,76.60
2023-10-14T11:36:22.943Z,76.80
2023-10-14T11:38:52.786Z,76.80
2023-10-14T11:41:22.672Z,76.80
2023-10-14T11:43:52.694Z,76.80
2023-10-14T11:46:22.368Z,76.90
2023-10-14T11:48:54.165Z,77.30
2023-10-14T11:51:23.355Z,77.30
2023-10-14T11:54:13.250Z,77.60
2023-10-14T11:56:42.952Z,77.70
2023-10-14T11:59:13.638Z,77.10
2023-10-14T12:02:00.941Z,77.40
2023-10-14T12:04:31.386Z,77.50
2023-10-14T12:07:04.669Z,77.30
2023-10-14T12:09:33.804Z,77.40
2023-10-14T12:12:04.112Z,77.60
2023-10-14T12:14:33.072Z,77.50
2023-10-14T12:17:06.526Z,77.60
2023-10-14T12:19:38.921Z,77.70
2023-10-14T12:22:08.198Z,77.80
2023-10-14T12:24:37.213Z,78.00
2023-10-14T12:27:11.886Z,78.50
2023-10-14T12:29:41.512Z,78.80
2023-10-14T12:32:19.199Z,78.50
2023-10-14T12:34:50.788Z,78.20
2023-10-14T12:37:26.529Z,78.50
2023-10-14T12:39:57.130Z,78.30
2023-10-14T12:42:39.855Z,78.70
2023-10-14T12:45:14.493Z,78.70
2023-10-14T12:47:47.939Z,78.90
2023-10-14T12:50:38.687Z,78.80
2023-10-14T12:53:14.452Z,78.80
2023-10-14T12:55:47.766Z,79.00
2023-10-14T12:58:17.613Z,79.00
2023-10-14T13:00:46.797Z,79.40
2023-10-14T13:03:19.112Z,79.90
2023-10-14T13:06:08.818Z,80.10
2023-10-14T13:08:38.230Z,80.50
2023-10-14T13:11:08.583Z,80.60
2023-10-14T13:13:56.157Z,81.00
2023-10-14T13:16:39.333Z,81.50
2023-10-14T13:19:24.184Z,81.70
2023-10-14T13:22:09.326Z,81.60
2023-10-14T13:25:03.793Z,81.80
2023-10-14T13:27:58.692Z,81.80
2023-10-14T13:30:55.612Z,81.90
2023-10-14T13:33:40.105Z,82.10
2023-10-14T13:36:12.527Z,82.30
2023-10-14T13:38:53.670Z,82.60
2023-10-14T13:41:40.134Z,82.80
2023-10-14T13:44:38.595Z,83.30
2023-10-14T13:47:23.688Z,83.50
2023-10-14T13:50:27.317Z,83.50
2023-10-14T13:53:24.021Z,84.00
2023-10-14T13:56:12.451Z,84.30
2023-10-14T13:58:49.625Z,84.70
2023-10-14T14:01:33.554Z,85.10
2023-10-14T14:04:28.064Z,85.30
2023-10-14T14:07:27.514Z,85.60
2023-10-14T14:10:11.565Z,85.90
2023-10-14T14:12:58.424Z,86.40
2023-10-14T14:15:44.718Z,86.70
2023-10-14T14:18:35.826Z,87.20
2023-10-14T14:21:22.531Z,87.50
2023-10-14T14:24:24.016Z,87.70
2023-10-14T14:27:14.243Z,88.30
2023-10-14T14:29:50.557Z,88.80
2023-10-14T14:32:23.016Z,89.30
2023-10-14T14:35:24.118Z,89.90
2023-10-14T14:38:14.155Z,90.20
2023-10-14T14:41:15.043Z,90.50
2023-10-14T14:44:11.242Z,90.80
2023-10-14T14:47:20.741Z,91.00
2023-10-14T14:50:06.061Z,91.20
2023-10-14T14:52:42.494Z,91.40
2023-10-14T14:55:25.433Z,91.70
2023-10-14T14:58:00.625Z,91.90
2023-10-14T15:00:41.207Z,92.10
2023-10-14T15:03:35.045Z,92.30
2023-10-14T15:06:12.668Z,92.50
2023-10-14T15:08:41.876Z,92.80
2023-10-14T15:11:13.373Z,93.10
2023-10-14T15:13:45.342Z,93.30
2023-10-14T15:16:18.619Z,93.50
2023-10-14T15:18:55.871Z,93.80
2023-10-14T15:21:27.316Z,94.10
2023-10-14T15:23:56.582Z,94.30
2023-10-14T15:26:25.653Z,94.50
2023-10-14T15:28:54.656Z,94.60
2023-10-14T15:31:23.730Z,94.80
2023-10-14T15:33:56.688Z,95.30
2023-10-14T15:36:27.230Z,95.10
2023-10-14T15:38:56.535Z,95.10
2023-10-14T15:41:26.834Z,95.00
2023-10-14T15:43:56.217Z,95.00
2023-10-14T15:46:27.387Z,95.10
2023-10-14T15:49:03.783Z,95.30
2023-10-14T15:51:47.411Z,95.60
2023-10-14T15:54:18.158Z,95.80
2023-10-14T15:57:13.101Z,96.00
2023-10-14T15:59:51.274Z,96.20
2023-10-14T16:02:20.541Z,96.30
2023-10-14T16:04:49.612Z,96.50
2023-10-14T16:07:32.622Z,96.60
2023-10-14T16:11:13.674Z,96.60
2023-10-14T16:14:26.075Z,96.80
2023-10-14T16:17:11.840Z,97.00
2023-10-14T16:20:11.371Z,97.30
2023-10-14T16:22:44.753Z,97.50
2023-10-14T16:25:14.415Z,97.80
2023-10-14T16:27:43.478Z,98.00
2023-10-14T16:30:17.553Z,98.20
2023-10-14T16:32:49.253Z,98.50
2023-10-14T16:35:22.666Z,98.70
2023-10-14T16:38:21.615Z,98.90
2023-10-14T16:40:57.531Z,99.10
2023-10-14T16:43:26.715Z,99.30
2023-10-14T16:45:57.420Z,99.50
2023-10-14T16:48:28.154Z,99.70
2023-10-14T16:50:57.318Z,99.90
2023-10-14T16:53:26.429Z,99.90
2023-10-14T16:55:56.252Z,99.90
2023-10-14T16:58:25.385Z,99.90
2023-10-14T17:00:56.232Z,99.90
2023-10-14T17:03:26.851Z,99.90
2023-10-14T17:06:16.725Z,99.90
2023-10-14T17:08:46.061Z,99.90
2023-10-14T17:11:15.414Z,99.90
2023-10-14T17:13:45.522Z,99.90
2023-10-14T17:16:15.410Z,99.90
2023-10-14T17:18:45.681Z,99.90
2023-10-14T17:21:16.101Z,99.90
2023-10-14T17:23:45.156Z,99.90
2023-10-14T17:26:14.265Z,99.90
2023-10-14T17:28:44.009Z,99.90
2023-10-14T17:31:16.558Z,99.90
2023-10-14T17:33:48.507Z,99.90
2023-10-14T17:36:19.097Z,99.90
2023-10-14T17:38:51.684Z,99.90
2023-10-14T17:41:21.681Z,99.90
2023-10-14T17:43:51.239Z,99.90
2023-10-14T17:46:21.367Z,99.90
2023-10-14T17:48:51.231Z,99.90
2023-10-14T17:51:21.885Z,99.90
2023-10-14T17:53:51.184Z,99.90
2023-10-14T17:56:20.050Z,99.90
2023-10-14T17:58:49.437Z,99.90
2023-10-14T18:01:18.720Z,99.90
2023-10-14T18:03:47.929Z,99.90
2023-10-14T18:06:19.228Z,99.90
2023-10-14T18:08:50.037Z,99.90
2023-10-14T18:11:20.069Z,99.90
2023-10-14T18:13:49.082Z,99.90
2023-10-14T18:16:18.538Z,99.90
2023-10-14T18:18:47.702Z,99.90
2023-10-14T18:21:18.326Z,99.90
2023-10-14T18:23:48.380Z,99.90
2023-10-14T18:26:26.158Z,99.90
2023-10-14T18:29:01.293Z,99.90
2023-10-14T18:31:35.608Z,99.90
2023-10-14T18:34:04.777Z,99.90
2023-10-14T18:36:59.470Z,99.90
2023-10-14T18:39:36.020Z,99.90
2023-10-14T18:42:06.559Z,99.90
2023-10-14T18:44:35.729Z,99.90
2023-10-14T18:47:05.657Z,99.90
2023-10-14T18:49:35.879Z,99.90
2023-10-14T18:52:08.278Z,99.90
2023-10-14T18:54:37.243Z,99.90
2023-10-14T18:57:07.551Z,99.90
2023-10-14T18:59:40.755Z,99.90
2023-10-14T19:02:09.796Z,99.90
2023-10-14T19:04:41.931Z,99.90
2023-10-14T19:07:37.070Z,99.90
2023-10-14T19:10:08.412Z,99.90
2023-10-14T19:12:39.355Z,99.90
2023-10-14T19:15:10.481Z,99.90
2023-10-14T19:17:41.647Z,99.90
2023-10-14T19:20:48.170Z,99.90
2023-10-14T19:23:18.048Z,99.90
2023-10-14T19:25:49.805Z,99.90
2023-10-14T19:28:22.840Z,99.90
2023-10-14T19:30:52.797Z,99.90
2023-10-14T19:33:40.425Z,99.90
2023-10-14T19:36:10.269Z,99.90
2023-10-14T19:38:42.494Z,99.90
2023-10-14T19:41:12.651Z,99.90
2023-10-14T19:43:44.419Z,99.90
2023-10-14T19:46:14.053Z,99.90
2023-10-14T19:49:02.525Z,99.90
2023-10-14T19:51:31.371Z,99.90
2023-10-14T19:54:31.283Z,99.90
2023-10-14T19:57:04.967Z,99.90
2023-10-14T19:59:35.652Z,99.90
2023-10-14T20:02:04.825Z,99.90
2023-10-14T20:04:37.540Z,99.90
2023-10-14T20:07:08.975Z,99.90
2023-10-14T20:09:37.917Z,99.90
2023-10-14T20:12:07.264Z,99.90
2023-10-14T20:14:37.881Z,99.90
2023-10-14T20:17:07.148Z,99.90
2023-10-14T20:19:42.081Z,99.90
2023-10-14T20:22:12.344Z,99.90
2023-10-14T20:24:41.399Z,99.90
2023-10-14T20:27:10.259Z,99.90
2023-10-14T20:29:40.709Z,99.90
2023-10-14T20:32:09.812Z,99.90
2023-10-14T20:34:39.001Z,99.90
2023-10-14T20:37:07.829Z,99.90
2023-10-14T20:39:36.720Z,99.90
2023-10-14T20:42:07.231Z,99.90
2023-10-14T20:44:37.383Z,99.90
2023-10-14T20:47:08.227Z,99.90
2023-10-14T20:49:36.192Z,99.90
2023-10-14T20:52:05.804Z,99.90
2023-10-14T20:54:34.788Z,99.90
2023-10-14T20:57:04.430Z,99.90
2023-10-14T20:59:34.544Z,99.90
2023-10-14T21:02:03.651Z,99.90
2023-10-14T21:04:34.885Z,99.90
2023-10-14T21:07:06.727Z,99.90
2023-10-14T21:09:40.437Z,99.90
2023-10-14T21:12:17.640Z,99.90
2023-10-14T21:14:53.003Z,99.90
2023-10-14T21:17:24.094Z,99.90
2023-10-14T21:19:54.590Z,99.90
2023-10-14T21:22:24.194Z,99.90
2023-10-14T21:24:55.075Z,99.90
2023-10-14T21:27:30.827Z,99.90
2023-10-14T21:30:00.170Z,99.90
2023-10-14T21:32:30.205Z,99.90
2023-10-14T21:35:15.434Z,99.90
2023-10-14T21:37:49.499Z,99.90
2023-10-14T21:40:23.101Z,99.90
2023-10-14T21:42:53.373Z,99.90
2023-10-14T21:45:23.693Z,99.90
2023-10-14T21:47:53.156Z,99.90
2023-10-14T21:50:23.555Z,99.90
2023-10-14T21:52:53.214Z,99.90
2023-10-14T21:55:23.526Z,99.90
2023-10-14T21:57:52.990Z,99.90
2023-10-14T22:00:23.749Z,99.90
2023-10-14T22:02:55.313Z,99.90
2023-10-14T22:05:26.664Z,99.90
2023-10-14T22:07:56.133Z,99.90
2023-10-14T22:10:28.071Z,99.90
2023-10-14T22:12:57.805Z,99.90
2023-10-14T22:15:32.824Z,99.90
2023-10-14T22:18:32.636Z,99.90
2023-10-14T22:21:24.228Z,99.90
2023-10-14T22:23:56.351Z,99.90
2023-10-14T22:26:30.323Z,99.90
2023-10-14T22:29:01.891Z,99.90
2023-10-14T22:31:31.753Z,99.90
2023-10-14T22:34:03.978Z,99.90
2023-10-14T22:37:01.498Z,99.90
2023-10-14T22:39:58.136Z,99.90
2023-10-14T22:42:29.162Z,99.90
2023-10-14T22:44:58.942Z,99.90
2023-10-14T22:47:32.467Z,99.90
2023-10-14T22:50:25.371Z,99.90
2023-10-14T22:52:57.870Z,99.90
2023-10-14T22:55:31.058Z,99.90
2023-10-14T22:58:01.499Z,99.90
2023-10-14T23:00:31.193Z,99.90
2023-10-14T23:03:01.237Z,99.90
2023-10-14T23:05:32.145Z,99.90
2023-10-14T23:08:22.613Z,99.90
2023-10-14T23:10:54.720Z,99.90
2023-10-14T23:13:26.855Z,99.90
2023-10-14T23:15:56.448Z,99.90
2023-10-14T23:18:27.982Z,99.90
2023-10-14T23:20:59.159Z,99.90
2023-10-14T23:23:31.208Z,99.90
2023-10-14T23:26:03.131Z,99.90
2023-10-14T23:28:34.433Z,99.90
2023-10-14T23:31:03.654Z,99.90
2023-10-14T23:33:34.533Z,99.90
2023-10-14T23:36:06.804Z,99.90
2023-10-14T23:38:39.064Z,99.90
2023-10-14T23:41:11.550Z,99.90
2023-10-14T23:43:45.613Z,99.90
2023-10-14T23:46:17.068Z,99.90
2023-10-14T23:48:47.160Z,99.90
2023-10-14T23:51:16.587Z,99.90
2023-10-14T23:53:46.266Z,99.90
2023-10-14T23:56:16.746Z,99.90
2023-10-14T23:58:46.950Z,99.90
